createdAt,value
2023-03-18T00:03:56.805Z,100.00
2023-03-18T00:09:18.940Z,100.00
2023-03-18T00:14:41.342Z,100.00
2023-03-18T00:20:07.209Z,100.00
2023-03-18T00:25:29.322Z,100.00
2023-03-18T00:30:52.070Z,100.00
2023-03-18T00:36:15.571Z,100.00
2023-03-18T00:41:38.620Z,100.00
2023-03-18T00:47:00.453Z,100.00
2023-03-18T00:52:22.702Z,100.00
2023-03-18T00:57:44.782Z,100.00
2023-03-18T01:03:07.122Z,100.00
2023-03-18T01:08:30.918Z,100.00
2023-03-18T01:13:54.268Z,100.00
2023-03-18T01:19:16.770Z,100.00
2023-03-18T01:24:40.024Z,100.00
2023-03-18T01:30:03.101Z,100.00
2023-03-18T01:35:26.428Z,100.00
2023-03-18T01:40:49.138Z,100.00
2023-03-18T01:46:33.304Z,100.00
2023-03-18T01:52:01.117Z,100.00
2023-03-18T01:57:24.580Z,100.00
2023-03-18T02:02:49.130Z,100.00
2023-03-18T02:08:11.138Z,100.00
2023-03-18T02:13:33.197Z,100.00
2023-03-18T02:18:59.784Z,100.00
2023-03-18T02:24:39.020Z,100.00
2023-03-18T02:30:31.445Z,100.00
2023-03-18T02:36:03.766Z,100.00
2023-03-18T02:41:32.421Z,100.00
2023-03-18T02:47:04.730Z,100.00
2023-03-18T02:52:27.145Z,100.00
2023-03-18T02:57:49.419Z,100.00
2023-03-18T03:03:12.127Z,100.00
2023-03-18T03:08:34.604Z,100.00
2023-03-18T03:13:59.545Z,100.00
2023-03-18T03:19:21.684Z,100.00
2023-03-18T03:24:44.304Z,100.00
2023-03-18T03:30:14.170Z,100.00
2023-03-18T03:35:39.353Z,100.00
2023-03-18T03:41:01.474Z,100.00
2023-03-18T03:46:24.105Z,100.00
2023-03-18T03:51:46.932Z,100.00
2023-03-18T03:57:09.625Z,100.00
2023-03-18T04:02:32.314Z,100.00
2023-03-18T04:07:56.070Z,100.00
2023-03-18T04:13:28.782Z,100.00
2023-03-18T04:18:51.028Z,100.00
2023-03-18T04:24:17.341Z,100.00
2023-03-18T04:29:40.573Z,100.00
2023-03-18T04:35:02.879Z,100.00
2023-03-18T04:40:25.848Z,100.00
2023-03-18T04:46:13.497Z,100.00
2023-03-18T04:51:38.213Z,100.00
2023-03-18T04:57:10.554Z,100.00
2023-03-18T05:02:43.014Z,100.00
2023-03-18T05:08:06.182Z,100.00
2023-03-18T05:13:29.063Z,100.00
2023-03-18T05:18:52.862Z,100.00
2023-03-18T05:35:49.736Z,100.00
2023-03-18T05:41:15.985Z,100.00
2023-03-18T05:46:44.462Z,100.00
2023-03-18T05:52:15.412Z,100.00
2023-03-18T05:57:44.822Z,100.00
2023-03-18T06:03:10.869Z,100.00
2023-03-18T06:08:33.701Z,100.00
2023-03-18T06:13:59.975Z,100.00
2023-03-18T06:19:22.846Z,100.00
2023-03-18T06:24:52.398Z,100.00
2023-03-18T06:30:16.095Z,100.00
2023-03-18T06:35:40.616Z,100.00
2023-03-18T06:41:10.904Z,100.00
2023-03-18T06:46:43.291Z,100.00
2023-03-18T06:52:08.806Z,100.00
2023-03-18T06:57:31.405Z,100.00
2023-03-18T07:02:53.745Z,100.00
2023-03-18T07:08:20.092Z,100.00
2023-03-18T07:13:42.251Z,100.00
2023-03-18T07:19:12.161Z,100.00
2023-03-18T07:24:36.745Z,100.00
2023-03-18T07:29:58.898Z,100.00
2023-03-18T07:35:21.192Z,100.00
2023-03-18T07:40:43.630Z,100.00
2023-03-18T07:46:06.262Z,100.00
2023-03-18T07:51:28.898Z,100.00
2023-03-18T07:56:52.355Z,98.67
2023-03-18T08:02:16.502Z,100.00
2023-03-18T08:07:38.942Z,100.00
2023-03-18T08:13:00.808Z,97.83
2023-03-18T08:18:24.303Z,100.00
2023-03-18T08:23:47.252Z,97.54
2023-03-18T08:29:09.858Z,96.77
2023-03-18T08:34:32.934Z,91.39
2023-03-18T08:39:55.759Z,90.33
2023-03-18T08:45:24.047Z,91.85
2023-03-18T08:50:45.695Z,83.91
2023-03-18T08:56:08.348Z,89.85
2023-03-18T09:01:30.762Z,87.14
2023-03-18T09:06:53.098Z,86.47
2023-03-18T09:12:15.983Z,85.19
2023-03-18T09:17:56.427Z,81.13
2023-03-18T09:23:22.985Z,79.40
2023-03-18T09:28:45.270Z,80.87
2023-03-18T09:34:07.549Z,80.68
2023-03-18T09:39:29.823Z,82.92
2023-03-18T09:44:57.500Z,81.42
2023-03-18T09:50:38.672Z,82.17
2023-03-18T09:56:03.699Z,76.09
2023-03-18T10:01:29.582Z,77.11
2023-03-18T10:07:01.700Z,74.14
2023-03-18T10:12:37.998Z,72.30
2023-03-18T10:18:15.861Z,76.25
2023-03-18T10:23:59.104Z,76.19
2023-03-18T10:29:35.382Z,73.00
2023-03-18T10:35:26.548Z,73.23
2023-03-18T10:40:48.822Z,72.67
2023-03-18T10:46:15.897Z,70.77
2023-03-18T10:51:48.182Z,70.56
2023-03-18T10:57:15.304Z,69.35
2023-03-18T11:02:42.535Z,70.40
2023-03-18T11:08:08.362Z,69.02
2023-03-18T11:13:30.705Z,68.88
2023-03-18T11:18:53.404Z,66.14
2023-03-18T11:24:36.687Z,68.77
2023-03-18T11:30:06.383Z,67.63
2023-03-18T11:35:42.368Z,66.04
2023-03-18T11:41:18.060Z,66.71
2023-03-18T11:47:07.172Z,65.61
2023-03-18T11:52:36.422Z,64.09
2023-03-18T11:58:07.483Z,63.70
2023-03-18T12:03:53.223Z,63.58
2023-03-18T12:10:00.877Z,64.49
2023-03-18T12:16:00.788Z,65.23
2023-03-18T12:21:41.572Z,65.13
2023-03-18T12:27:07.440Z,64.98
2023-03-18T12:32:57.599Z,63.79
2023-03-18T12:39:02.271Z,64.18
2023-03-18T12:44:50.075Z,64.15
2023-03-18T12:50:50.944Z,66.21
2023-03-18T12:56:26.366Z,65.79
2023-03-18T13:02:12.374Z,68.21
2023-03-18T13:07:44.864Z,68.83
2023-03-18T13:13:12.702Z,70.55
2023-03-18T13:18:45.639Z,72.29
2023-03-18T13:24:54.838Z,71.83
2023-03-18T13:30:58.174Z,69.30
2023-03-18T13:36:42.190Z,71.40
2023-03-18T13:42:32.403Z,72.73
2023-03-18T13:48:03.366Z,73.61
2023-03-18T13:53:33.183Z,75.57
2023-03-18T13:58:55.684Z,74.04
2023-03-18T14:04:46.835Z,73.48
2023-03-18T14:10:19.430Z,74.25
2023-03-18T14:15:45.178Z,74.93
2023-03-18T14:21:30.127Z,75.23
2023-03-18T14:27:04.897Z,74.94
2023-03-18T14:32:39.326Z,75.87
2023-03-18T14:38:05.551Z,76.33
2023-03-18T14:43:34.502Z,76.73
2023-03-18T14:48:56.878Z,75.99
2023-03-18T14:54:25.910Z,76.22
2023-03-18T14:59:48.350Z,76.91
2023-03-18T15:05:15.504Z,77.96
2023-03-18T15:10:38.242Z,77.90
2023-03-18T15:16:04.253Z,77.88
2023-03-18T15:21:32.949Z,79.09
2023-03-18T15:27:00.743Z,79.79
2023-03-18T15:32:31.204Z,81.82
2023-03-18T15:38:17.043Z,84.96
2023-03-18T15:43:44.314Z,86.29
2023-03-18T15:49:07.730Z,85.55
2023-03-18T15:54:39.695Z,85.55
2023-03-18T16:00:03.188Z,85.91
2023-03-18T16:05:35.024Z,84.96
2023-03-18T16:11:03.068Z,85.54
2023-03-18T16:16:31.789Z,86.99
2023-03-18T16:21:57.077Z,88.25
2023-03-18T16:27:42.198Z,91.11
2023-03-18T16:33:11.757Z,92.95
2023-03-18T16:38:44.577Z,93.48
2023-03-18T16:44:21.837Z,96.73
2023-03-18T16:49:44.326Z,98.33
2023-03-18T16:55:15.359Z,100.00
2023-03-18T17:00:38.703Z,100.00
2023-03-18T17:06:00.880Z,100.00
2023-03-18T17:11:23.332Z,100.00
2023-03-18T17:16:45.474Z,100.00
2023-03-18T17:22:22.189Z,100.00
2023-03-18T17:27:55.378Z,100.00
2023-03-18T17:33:23.667Z,100.00
2023-03-18T17:38:46.225Z,100.00
2023-03-18T17:44:28.392Z,100.00
2023-03-18T17:49:52.031Z,100.00
2023-03-18T17:55:23.402Z,100.00
2023-03-18T18:00:49.647Z,100.00
2023-03-18T18:06:23.871Z,100.00
2023-03-18T18:11:50.171Z,100.00
2023-03-18T18:17:21.910Z,100.00
2023-03-18T18:22:51.990Z,100.00
2023-03-18T18:28:22.710Z,100.00
2023-03-18T18:33:50.660Z,100.00
2023-03-18T18:39:17.114Z,100.00
2023-03-18T18:44:45.739Z,100.00
2023-03-18T18:50:17.978Z,100.00
2023-03-18T18:55:40.839Z,100.00
2023-03-18T19:01:02.821Z,100.00
2023-03-18T19:06:28.134Z,100.00
2023-03-18T19:11:50.824Z,100.00
2023-03-18T19:17:18.433Z,100.00
2023-03-18T19:22:41.135Z,100.00
2023-03-18T19:28:03.305Z,100.00
2023-03-18T19:33:28.156Z,100.00
2023-03-18T19:38:51.292Z,100.00
2023-03-18T19:44:18.788Z,100.00
2023-03-18T19:49:41.514Z,100.00
2023-03-18T19:55:09.375Z,100.00
2023-03-18T20:00:32.245Z,100.00
2023-03-18T20:05:54.369Z,100.00
2023-03-18T20:11:18.616Z,100.00
2023-03-18T20:16:41.104Z,100.00
2023-03-18T20:22:03.965Z,100.00
2023-03-18T20:27:26.288Z,100.00
2023-03-18T20:32:48.629Z,100.00
2023-03-18T20:38:15.137Z,100.00
2023-03-18T20:43:37.360Z,100.00
2023-03-18T20:48:59.374Z,100.00
2023-03-18T20:54:30.606Z,100.00
2023-03-18T20:59:53.731Z,100.00
2023-03-18T21:05:16.283Z,100.00
2023-03-18T21:10:38.468Z,100.00
2023-03-18T21:16:01.907Z,100.00
2023-03-18T21:21:35.116Z,100.00
2023-03-18T21:27:04.822Z,100.00
2023-03-18T21:32:32.644Z,100.00
2023-03-18T21:37:54.841Z,100.00
2023-03-18T21:43:37.662Z,100.00
2023-03-18T21:48:59.939Z,100.00
2023-03-18T21:54:22.493Z,100.00
2023-03-18T21:59:46.601Z,100.00
2023-03-18T22:05:23.438Z,100.00
2023-03-18T22:10:47.304Z,100.00
2023-03-18T22:16:15.750Z,100.00
2023-03-18T22:21:38.241Z,100.00
2023-03-18T22:27:00.888Z,100.00
2023-03-18T22:32:42.255Z,100.00
2023-03-18T22:38:05.215Z,100.00
2023-03-18T22:43:34.029Z,100.00
2023-03-18T22:48:59.094Z,100.00
2023-03-18T22:54:21.645Z,100.00
2023-03-18T22:59:43.495Z,100.00
2023-03-18T23:05:05.864Z,100.00
2023-03-18T23:10:28.164Z,100.00
2023-03-18T23:15:50.255Z,100.00
2023-03-18T23:21:21.794Z,100.00
2023-03-18T23:26:44.001Z,100.00
2023-03-18T23:32:06.843Z,100.00
2023-03-18T23:37:28.681Z,100.00
2023-03-18T23:42:50.797Z,100.00
2023-03-18T23:48:12.705Z,100.00
2023-03-18T23:53:35.016Z,100.00
2023-03-18T23:58:57.064Z,100.00
